Time;durP1;ratioP1;P1;durP2;ratioP2;P2;SDS_P1;SDS_P2;PMS_P1;PMS_P2;Temp;Humidity;BMP_temperature;BMP_pressure;BME280_temperature;BME280_humidity;BME280_pressure;Samples;Min_cycle;Max_cycle;Signal;HPM_P1;HPM_P2
2022/01/13 00:02:04;;;;;;;8.75;3.97;;;;;;;;;;5083281;28;20040;-70
2022/01/13 00:04:30;;;;;;;8.63;3.83;;;;;;;;;;5085214;28;20586;-69
2022/01/13 00:06:56;;;;;;;9.15;3.97;;;;;;;;;;5083032;28;20189;-70
2022/01/13 00:09:22;;;;;;;11.05;4.05;;;;;;;;;;5085164;28;20048;-70
2022/01/13 00:11:49;;;;;;;9.10;4.32;;;;;;;;;;5084144;28;20040;-70
2022/01/13 00:17:05;;;;;;;11.77;4.20;;;;;;;;;;5076080;28;20091;-69
2022/01/13 00:22:17;;;;;;;8.52;3.90;;;;;;;;;;5117019;27;20036;-70
2022/01/13 00:24:46;;;;;;;10.35;4.22;;;;;;;;;;5068412;28;20131;-69
2022/01/13 00:27:14;;;;;;;8.32;3.70;;;;;;;;;;5076241;28;20105;-70
2022/01/13 00:29:43;;;;;;;10.43;4.22;;;;;;;;;;5075849;28;20718;-70
2022/01/13 00:32:10;;;;;;;10.68;4.50;;;;;;;;;;5068497;28;20405;-69
2022/01/13 00:34:36;;;;;;;9.70;4.03;;;;;;;;;;5085223;28;20157;-69
2022/01/13 00:37:02;;;;;;;9.93;3.72;;;;;;;;;;5084410;28;20036;-69
2022/01/13 00:39:28;;;;;;;10.13;4.20;;;;;;;;;;5084229;28;20063;-70
2022/01/13 00:41:54;;;;;;;8.60;3.97;;;;;;;;;;5066450;28;20040;-69
2022/01/13 00:44:21;;;;;;;8.95;3.83;;;;;;;;;;5085264;28;20056;-69
2022/01/13 00:46:50;;;;;;;9.00;3.88;;;;;;;;;;5083770;28;20563;-69
2022/01/13 00:49:16;;;;;;;8.27;4.18;;;;;;;;;;5084881;28;20052;-69
2022/01/13 00:51:43;;;;;;;8.75;3.80;;;;;;;;;;5083249;28;20051;-70
2022/01/13 00:54:09;;;;;;;10.70;4.40;;;;;;;;;;5071771;28;20047;-69
2022/01/13 00:56:35;;;;;;;10.52;4.20;;;;;;;;;;5058674;28;20568;-69
2022/01/13 00:59:07;;;;;;;8.43;3.88;;;;;;;;;;5067179;28;20036;-70
2022/01/13 01:01:33;;;;;;;9.20;3.60;;;;;;;;;;5066360;28;20044;-69
2022/01/13 01:03:59;;;;;;;8.77;3.85;;;;;;;;;;5083962;28;20063;-70
2022/01/13 01:06:25;;;;;;;9.80;4.10;;;;;;;;;;5083300;28;20111;-70
2022/01/13 01:08:50;;;;;;;9.05;3.80;;;;;;;;;;5082638;28;20043;-74
2022/01/13 01:11:17;;;;;;;9.95;3.85;;;;;;;;;;5067397;28;20712;-70
2022/01/13 01:13:43;;;;;;;8.55;3.80;;;;;;;;;;5085265;28;20069;-70
2022/01/13 01:16:11;;;;;;;8.93;3.70;;;;;;;;;;5089784;28;20496;-70
2022/01/13 01:19:12;;;;;;;9.63;3.65;;;;;;;;;;5086317;28;20589;-70
2022/01/13 01:24:15;;;;;;;8.27;3.35;;;;;;;;;;5102592;28;20053;-70
2022/01/13 01:29:36;;;;;;;10.25;3.65;;;;;;;;;;5104789;28;20039;-69
2022/01/13 01:32:05;;;;;;;8.63;3.78;;;;;;;;;;5102544;28;20068;-69
2022/01/13 01:37:15;;;;;;;7.55;3.28;;;;;;;;;;5070541;28;20048;-69
2022/01/13 01:39:42;;;;;;;10.93;4.28;;;;;;;;;;5051741;28;20048;-69
2022/01/13 01:42:09;;;;;;;8.88;3.72;;;;;;;;;;5070265;28;20031;-70
2022/01/13 01:44:39;;;;;;;7.50;3.90;;;;;;;;;;5104278;28;20039;-69
2022/01/13 01:47:08;;;;;;;8.05;3.67;;;;;;;;;;5100943;28;20123;-70
2022/01/13 01:49:39;;;;;;;8.00;3.60;;;;;;;;;;5104524;28;20035;-70
2022/01/13 01:52:05;;;;;;;9.15;4.13;;;;;;;;;;5101489;28;20051;-69
2022/01/13 01:54:31;;;;;;;8.77;3.80;;;;;;;;;;5087913;28;20036;-69
2022/01/13 01:56:57;;;;;;;8.30;3.50;;;;;;;;;;5076139;28;20052;-69
2022/01/13 01:59:28;;;;;;;9.55;4.05;;;;;;;;;;5103888;28;20075;-70
2022/01/13 02:01:54;;;;;;;9.45;3.40;;;;;;;;;;5084602;28;20042;-69
2022/01/13 02:04:20;;;;;;;7.93;3.80;;;;;;;;;;5077152;28;20078;-70
2022/01/13 02:06:47;;;;;;;8.93;3.65;;;;;;;;;;5072748;28;20043;-70
2022/01/13 02:09:16;;;;;;;7.40;3.80;;;;;;;;;;5104268;28;20055;-70
2022/01/13 02:11:44;;;;;;;8.13;3.50;;;;;;;;;;5102649;28;20050;-70
2022/01/13 02:17:06;;;;;;;7.53;3.80;;;;;;;;;;5063495;28;20059;-69
2022/01/13 02:19:33;;;;;;;7.32;3.60;;;;;;;;;;5083067;28;20044;-70
2022/01/13 02:21:59;;;;;;;7.57;3.33;;;;;;;;;;5082080;28;20814;-69
2022/01/13 02:24:25;;;;;;;8.18;3.60;;;;;;;;;;5072061;28;20052;-70
2022/01/13 02:26:51;;;;;;;8.90;3.88;;;;;;;;;;5097257;28;20052;-69
2022/01/13 02:29:17;;;;;;;8.73;3.67;;;;;;;;;;5071857;28;20044;-70
2022/01/13 02:31:44;;;;;;;9.00;3.97;;;;;;;;;;5031210;28;20059;-70
2022/01/13 02:34:10;;;;;;;6.88;3.47;;;;;;;;;;5082723;28;20043;-70
2022/01/13 02:36:37;;;;;;;7.03;3.28;;;;;;;;;;5083213;28;20631;-70
2022/01/13 02:39:04;;;;;;;8.88;3.97;;;;;;;;;;5075214;28;20048;-70
2022/01/13 02:41:30;;;;;;;7.88;3.33;;;;;;;;;;5081876;27;20044;-70
2022/01/13 02:43:58;;;;;;;7.35;3.50;;;;;;;;;;5079770;28;20048;-70
2022/01/13 02:49:08;;;;;;;8.00;3.35;;;;;;;;;;5116913;27;20044;-70
2022/01/13 02:51:34;;;;;;;6.97;3.03;;;;;;;;;;5082660;28;20048;-69
2022/01/13 02:54:00;;;;;;;7.28;3.40;;;;;;;;;;5083084;28;20039;-70
2022/01/13 02:56:27;;;;;;;8.18;3.88;;;;;;;;;;5080708;28;20051;-70
2022/01/13 02:58:53;;;;;;;8.02;3.80;;;;;;;;;;5081755;28;20051;-69
2022/01/13 03:01:19;;;;;;;9.55;3.60;;;;;;;;;;5050814;28;20477;-70
2022/01/13 03:03:46;;;;;;;9.40;3.67;;;;;;;;;;5089243;27;20032;-70
2022/01/13 03:06:13;;;;;;;8.43;3.63;;;;;;;;;;5096024;28;20120;-70
2022/01/13 03:08:42;;;;;;;8.95;3.55;;;;;;;;;;5062393;28;20044;-70
2022/01/13 03:11:08;;;;;;;7.57;3.72;;;;;;;;;;5083075;28;20052;-69
2022/01/13 03:13:34;;;;;;;9.25;3.97;;;;;;;;;;5078044;28;20048;-69
2022/01/13 03:16:07;;;;;;;8.88;3.80;;;;;;;;;;5078844;28;20086;-69
2022/01/13 03:18:33;;;;;;;7.18;3.70;;;;;;;;;;5105431;28;20500;-70
2022/01/13 03:20:59;;;;;;;7.47;3.50;;;;;;;;;;5107256;28;20075;-69
2022/01/13 03:23:25;;;;;;;7.63;3.50;;;;;;;;;;5123586;28;20074;-70
2022/01/13 03:25:51;;;;;;;8.43;3.50;;;;;;;;;;5126685;27;20043;-69
2022/01/13 03:28:28;;;;;;;7.55;3.40;;;;;;;;;;5109865;27;20046;-69
2022/01/13 03:30:54;;;;;;;8.93;3.50;;;;;;;;;;5110605;27;20043;-70
2022/01/13 03:33:20;;;;;;;10.05;4.20;;;;;;;;;;5108506;27;20031;-70
2022/01/13 03:35:46;;;;;;;8.73;3.47;;;;;;;;;;5110462;27;20032;-69
2022/01/13 03:38:12;;;;;;;9.35;4.03;;;;;;;;;;5108862;27;20100;-70
2022/01/13 03:40:39;;;;;;;7.47;3.45;;;;;;;;;;5093252;27;20043;-70
2022/01/13 03:43:05;;;;;;;8.27;3.55;;;;;;;;;;5089731;27;20542;-70
2022/01/13 03:45:32;;;;;;;8.63;3.55;;;;;;;;;;5083279;28;20044;-70
2022/01/13 03:47:59;;;;;;;8.60;3.63;;;;;;;;;;5083840;27;20038;-69
2022/01/13 03:50:25;;;;;;;8.90;3.90;;;;;;;;;;5092292;27;20050;-69
2022/01/13 03:53:03;;;;;;;8.65;3.85;;;;;;;;;;5092353;27;20110;-69
2022/01/13 03:55:35;;;;;;;7.93;3.63;;;;;;;;;;5092903;27;20087;-69
2022/01/13 03:58:40;;;;;;;9.52;3.83;;;;;;;;;;5091942;27;20046;-69
2022/01/13 04:01:26;;;;;;;7.70;3.57;;;;;;;;;;5109229;27;20126;-70
2022/01/13 04:03:52;;;;;;;8.15;3.28;;;;;;;;;;5126365;27;20301;-70
2022/01/13 04:06:18;;;;;;;7.75;3.50;;;;;;;;;;5092606;27;20039;-69
2022/01/13 04:08:48;;;;;;;7.05;3.58;;;;;;;;;;5092393;27;20053;-69
2022/01/13 04:11:25;;;;;;;9.10;3.65;;;;;;;;;;5109761;27;20150;-69
2022/01/13 04:14:01;;;;;;;7.32;3.40;;;;;;;;;;5108372;27;20074;-69
2022/01/13 04:16:29;;;;;;;6.47;3.33;;;;;;;;;;5102989;27;21756;-70
2022/01/13 04:18:59;;;;;;;7.30;3.58;;;;;;;;;;5075200;27;20104;-70
2022/01/13 04:21:25;;;;;;;8.00;3.67;;;;;;;;;;5073254;27;20119;-70
2022/01/13 04:23:54;;;;;;;6.55;2.92;;;;;;;;;;5140127;27;20047;-69
2022/01/13 04:26:27;;;;;;;7.03;3.22;;;;;;;;;;5108835;27;20043;-69
2022/01/13 04:29:01;;;;;;;10.05;3.92;;;;;;;;;;5108475;27;20042;-69
2022/01/13 04:31:27;;;;;;;;;;;;;;;;;;5107978;27;20051;-69
2022/01/13 04:33:53;;;;;;;9.57;3.90;;;;;;;;;;5091512;27;19926;-70
2022/01/13 04:36:19;;;;;;;6.88;3.40;;;;;;;;;;5107181;28;20069;-70
2022/01/13 04:38:45;;;;;;;8.15;3.33;;;;;;;;;;5091188;27;20122;-70
2022/01/13 04:41:11;;;;;;;6.53;3.03;;;;;;;;;;5127262;27;20669;-70
2022/01/13 04:43:37;;;;;;;9.20;3.92;;;;;;;;;;5107798;27;20043;-70
2022/01/13 04:46:03;;;;;;;8.10;3.63;;;;;;;;;;5108522;27;20035;-70
2022/01/13 04:48:29;;;;;;;6.57;3.10;;;;;;;;;;5075254;28;20044;-70
2022/01/13 04:50:55;;;;;;;7.03;3.50;;;;;;;;;;5087111;28;20047;-70
2022/01/13 04:53:21;;;;;;;7.63;3.58;;;;;;;;;;5083968;27;20036;-70
2022/01/13 04:55:53;;;;;;;6.93;3.67;;;;;;;;;;5090274;27;20112;-69
2022/01/13 04:58:21;;;;;;;7.18;3.28;;;;;;;;;;5090069;27;20113;-70
2022/01/13 05:00:47;;;;;;;7.07;3.33;;;;;;;;;;5073455;27;20048;-70
2022/01/13 05:03:13;;;;;;;7.15;3.40;;;;;;;;;;5099838;27;20038;-70
2022/01/13 05:05:39;;;;;;;7.43;3.53;;;;;;;;;;5091284;27;20043;-69
2022/01/13 05:08:05;;;;;;;6.28;3.13;;;;;;;;;;5091512;27;20058;-70
2022/01/13 05:10:31;;;;;;;7.00;3.20;;;;;;;;;;5086524;27;20042;-70
2022/01/13 05:12:58;;;;;;;6.32;3.10;;;;;;;;;;5116814;27;20035;-70
2022/01/13 05:15:27;;;;;;;8.15;3.13;;;;;;;;;;5108895;27;20035;-70
2022/01/13 05:20:22;;;;;;;6.63;3.55;;;;;;;;;;5105408;28;20036;-70
2022/01/13 05:22:49;;;;;;;6.53;3.42;;;;;;;;;;5105023;28;20573;-69
2022/01/13 05:25:16;;;;;;;7.65;3.53;;;;;;;;;;5104990;28;20123;-69
2022/01/13 05:27:42;;;;;;;7.18;3.10;;;;;;;;;;5085833;28;20040;-70
2022/01/13 05:30:08;;;;;;;7.72;3.22;;;;;;;;;;5103806;28;20055;-69
2022/01/13 05:32:34;;;;;;;7.15;3.13;;;;;;;;;;5102259;28;20035;-69
2022/01/13 05:35:00;;;;;;;6.28;3.08;;;;;;;;;;5033335;28;20149;-70
2022/01/13 05:37:26;;;;;;;7.18;3.60;;;;;;;;;;5045099;28;20619;-69
2022/01/13 05:39:53;;;;;;;5.90;3.00;;;;;;;;;;5084020;28;20048;-70
2022/01/13 05:42:19;;;;;;;6.78;3.40;;;;;;;;;;5087718;28;20808;-70
2022/01/13 05:44:45;;;;;;;6.78;3.33;;;;;;;;;;5068509;28;20043;-69
2022/01/13 05:47:11;;;;;;;6.47;3.38;;;;;;;;;;5069807;28;20463;-69
2022/01/13 05:49:40;;;;;;;6.18;3.15;;;;;;;;;;5103288;28;20035;-70
2022/01/13 05:52:06;;;;;;;6.63;3.05;;;;;;;;;;5077896;28;20040;-69
2022/01/13 05:54:32;;;;;;;6.70;3.30;;;;;;;;;;5105627;28;20520;-69
2022/01/13 05:56:58;;;;;;;6.30;3.22;;;;;;;;;;5101560;28;20049;-69
2022/01/13 05:59:24;;;;;;;6.68;3.08;;;;;;;;;;5103706;28;20051;-69
2022/01/13 06:01:50;;;;;;;5.47;2.65;;;;;;;;;;5101439;28;20036;-69
2022/01/13 06:04:16;;;;;;;6.57;3.15;;;;;;;;;;5104199;28;20071;-70
2022/01/13 06:06:42;;;;;;;6.57;3.13;;;;;;;;;;5078373;28;20125;-70
2022/01/13 06:09:09;;;;;;;6.38;3.15;;;;;;;;;;5066034;28;20044;-70
2022/01/13 06:11:40;;;;;;;5.85;2.88;;;;;;;;;;5064593;28;20064;-70
2022/01/13 06:14:07;;;;;;;6.38;3.30;;;;;;;;;;5103589;28;20047;-70
2022/01/13 06:16:33;;;;;;;6.53;3.38;;;;;;;;;;5081280;28;20159;-69
2022/01/13 06:18:59;;;;;;;5.95;2.90;;;;;;;;;;5055727;28;20096;-70
2022/01/13 06:21:25;;;;;;;6.10;3.20;;;;;;;;;;5046572;28;20048;-70
2022/01/13 06:23:51;;;;;;;6.80;3.53;;;;;;;;;;5098610;28;20035;-70
2022/01/13 06:26:17;;;;;;;5.85;3.10;;;;;;;;;;5098984;28;20077;-70
2022/01/13 06:28:43;;;;;;;6.68;3.50;;;;;;;;;;5047162;28;20761;-70
2022/01/13 06:31:09;;;;;;;6.13;3.20;;;;;;;;;;5053296;28;20048;-70
2022/01/13 06:33:35;;;;;;;6.97;3.90;;;;;;;;;;5054562;28;20052;-70
2022/01/13 06:36:04;;;;;;;7.28;3.70;;;;;;;;;;5054197;28;20066;-70
2022/01/13 06:38:30;;;;;;;7.05;3.47;;;;;;;;;;5064659;28;20052;-70
2022/01/13 06:40:56;;;;;;;7.00;3.70;;;;;;;;;;5061970;28;20634;-70
2022/01/13 06:43:22;;;;;;;6.97;3.60;;;;;;;;;;5066763;28;20050;-70
2022/01/13 06:45:48;;;;;;;6.05;3.10;;;;;;;;;;5062542;28;20044;-69
2022/01/13 06:48:14;;;;;;;7.10;3.42;;;;;;;;;;5071614;28;20492;-69
2022/01/13 06:50:40;;;;;;;6.60;3.20;;;;;;;;;;5102724;28;20233;-70
2022/01/13 06:53:06;;;;;;;8.63;3.67;;;;;;;;;;5082858;28;20040;-70
2022/01/13 06:55:32;;;;;;;7.95;3.92;;;;;;;;;;5064221;28;20040;-71
2022/01/13 06:57:58;;;;;;;8.52;3.53;;;;;;;;;;5083022;28;20077;-70
2022/01/13 07:00:24;;;;;;;8.52;3.40;;;;;;;;;;5069772;28;20192;-70
2022/01/13 07:02:52;;;;;;;8.10;3.33;;;;;;;;;;5054608;28;20086;-70
2022/01/13 07:05:18;;;;;;;6.90;3.53;;;;;;;;;;5066480;28;20127;-70
2022/01/13 07:07:45;;;;;;;8.93;3.60;;;;;;;;;;5085007;28;20118;-69
2022/01/13 07:10:12;;;;;;;6.80;3.45;;;;;;;;;;5107741;28;20426;-70
2022/01/13 07:12:39;;;;;;;7.55;3.92;;;;;;;;;;5100652;28;20131;-70
2022/01/13 07:15:06;;;;;;;8.30;4.00;;;;;;;;;;5103100;28;20039;-69
2022/01/13 07:17:32;;;;;;;6.22;3.25;;;;;;;;;;5123387;27;20047;-71
2022/01/13 07:19:59;;;;;;;7.40;3.50;;;;;;;;;;5109800;27;20063;-71
2022/01/13 07:22:25;;;;;;;8.23;3.90;;;;;;;;;;5091931;27;20540;-70
2022/01/13 07:24:51;;;;;;;8.52;3.85;;;;;;;;;;5093472;27;20077;-71
2022/01/13 07:27:17;;;;;;;8.20;3.90;;;;;;;;;;5109130;27;20035;-70
2022/01/13 07:29:43;;;;;;;7.68;3.72;;;;;;;;;;5110172;27;20039;-70
2022/01/13 07:32:12;;;;;;;9.75;4.30;;;;;;;;;;5109501;27;20661;-69
2022/01/13 07:34:39;;;;;;;8.10;4.03;;;;;;;;;;5110227;27;20046;-70
2022/01/13 07:37:05;;;;;;;7.93;3.72;;;;;;;;;;5108837;27;20472;-70
2022/01/13 07:39:31;;;;;;;8.00;4.28;;;;;;;;;;5110417;27;20664;-70
2022/01/13 07:41:57;;;;;;;10.23;4.00;;;;;;;;;;5127027;27;20043;-70
2022/01/13 07:44:23;;;;;;;9.13;3.88;;;;;;;;;;5110069;27;20091;-70
2022/01/13 07:46:49;;;;;;;8.15;4.30;;;;;;;;;;5108472;27;20066;-70
2022/01/13 07:49:15;;;;;;;7.70;3.95;;;;;;;;;;5093063;27;20115;-70
2022/01/13 07:51:41;;;;;;;8.73;4.47;;;;;;;;;;5126950;27;20484;-70
2022/01/13 07:54:07;;;;;;;7.47;4.20;;;;;;;;;;5109682;27;20043;-71
2022/01/13 07:56:34;;;;;;;8.52;4.07;;;;;;;;;;5109794;27;20035;-70
2022/01/13 07:59:00;;;;;;;9.23;4.20;;;;;;;;;;5108915;27;20055;-70
2022/01/13 08:01:26;;;;;;;7.25;3.88;;;;;;;;;;5109743;27;20144;-71
2022/01/13 08:03:52;;;;;;;7.65;3.92;;;;;;;;;;5111400;27;20702;-71
2022/01/13 08:06:18;;;;;;;7.35;3.78;;;;;;;;;;5091847;27;20055;-70
2022/01/13 08:08:44;;;;;;;7.80;4.30;;;;;;;;;;5110542;27;20047;-70
2022/01/13 08:11:10;;;;;;;7.93;4.00;;;;;;;;;;5096644;27;20049;-69
2022/01/13 08:13:37;;;;;;;6.60;3.20;;;;;;;;;;5110273;27;20055;-70
2022/01/13 08:16:07;;;;;;;7.70;3.67;;;;;;;;;;5109102;27;20047;-70
2022/01/13 08:21:18;;;;;;;7.10;3.45;;;;;;;;;;5110334;27;20118;-70
2022/01/13 08:23:44;;;;;;;6.93;3.60;;;;;;;;;;5091465;27;20590;-70
2022/01/13 08:26:10;;;;;;;7.05;3.60;;;;;;;;;;5109143;27;20130;-70
2022/01/13 08:28:37;;;;;;;7.18;3.60;;;;;;;;;;5091375;27;20122;-70
2022/01/13 08:31:06;;;;;;;7.72;3.50;;;;;;;;;;5108282;27;20089;-70
2022/01/13 08:33:32;;;;;;;6.88;3.60;;;;;;;;;;5126981;27;20091;-70
2022/01/13 08:35:58;;;;;;;8.13;4.03;;;;;;;;;;5108230;27;20721;-70
2022/01/13 08:38:25;;;;;;;7.20;3.80;;;;;;;;;;5106612;27;20625;-71
2022/01/13 08:40:58;;;;;;;7.68;3.90;;;;;;;;;;5119202;27;20036;-70
2022/01/13 08:43:24;;;;;;;7.60;3.67;;;;;;;;;;5101021;27;20040;-70
2022/01/13 08:45:51;;;;;;;7.68;3.88;;;;;;;;;;5109568;27;20074;-71
2022/01/13 08:48:17;;;;;;;7.63;3.90;;;;;;;;;;5107984;27;20670;-70
2022/01/13 08:50:43;;;;;;;7.28;3.80;;;;;;;;;;5108088;27;20043;-70
2022/01/13 08:53:10;;;;;;;7.15;3.33;;;;;;;;;;5107880;27;20394;-70
2022/01/13 08:55:36;;;;;;;7.30;3.75;;;;;;;;;;5108174;27;20126;-70
2022/01/13 08:58:02;;;;;;;7.18;3.90;;;;;;;;;;5126260;27;20066;-70
2022/01/13 09:00:28;;;;;;;7.85;3.83;;;;;;;;;;5091638;27;20043;-71
2022/01/13 09:02:55;;;;;;;7.63;3.83;;;;;;;;;;5107550;27;20063;-72
2022/01/13 09:05:21;;;;;;;7.47;3.97;;;;;;;;;;5108756;27;20050;-71
2022/01/13 09:07:47;;;;;;;7.00;3.85;;;;;;;;;;5107409;27;20122;-71
2022/01/13 09:10:14;;;;;;;7.70;3.63;;;;;;;;;;5108876;27;20647;-72
2022/01/13 09:12:40;;;;;;;8.15;3.63;;;;;;;;;;5106647;27;20035;-71
2022/01/13 09:15:16;;;;;;;6.97;3.53;;;;;;;;;;5098466;27;20624;-71
2022/01/13 09:17:43;;;;;;;7.80;3.90;;;;;;;;;;5096336;27;20130;-72
2022/01/13 09:20:13;;;;;;;7.95;3.90;;;;;;;;;;5108315;27;20043;-71
2022/01/13 09:22:43;;;;;;;8.85;4.20;;;;;;;;;;5105469;27;20046;-72
2022/01/13 09:25:10;;;;;;;6.90;3.47;;;;;;;;;;5098794;27;20043;-71
2022/01/13 09:27:37;;;;;;;7.03;3.70;;;;;;;;;;5094929;27;20043;-70
2022/01/13 09:30:03;;;;;;;8.55;3.63;;;;;;;;;;5107992;27;20446;-69
2022/01/13 09:32:29;;;;;;;9.48;4.55;;;;;;;;;;5107066;27;20038;-69
2022/01/13 09:34:55;;;;;;;8.88;4.32;;;;;;;;;;5107562;27;20039;-69
2022/01/13 09:37:24;;;;;;;8.73;4.47;;;;;;;;;;5106062;27;20107;-69
2022/01/13 09:39:50;;;;;;;7.28;4.15;;;;;;;;;;5108109;27;20517;-70
2022/01/13 09:42:16;;;;;;;8.00;3.83;;;;;;;;;;5106034;27;20042;-69
2022/01/13 09:44:43;;;;;;;6.43;3.30;;;;;;;;;;5103163;27;20070;-70
2022/01/13 09:47:09;;;;;;;8.25;3.70;;;;;;;;;;5106755;27;20089;-69
2022/01/13 09:49:35;;;;;;;8.57;3.67;;;;;;;;;;5107730;27;20045;-69
2022/01/13 09:52:01;;;;;;;8.45;4.25;;;;;;;;;;5089160;27;20035;-71
2022/01/13 09:54:27;;;;;;;7.90;4.13;;;;;;;;;;5107497;27;20129;-70
2022/01/13 09:56:53;;;;;;;8.70;4.78;;;;;;;;;;5106289;27;20095;-70
2022/01/13 09:59:19;;;;;;;9.50;4.65;;;;;;;;;;5090532;27;20043;-70
2022/01/13 10:01:45;;;;;;;8.20;4.15;;;;;;;;;;5105314;27;20042;-70
2022/01/13 10:04:11;;;;;;;7.50;3.83;;;;;;;;;;5106405;27;20039;-69
2022/01/13 10:06:47;;;;;;;7.95;4.05;;;;;;;;;;5106142;27;20579;-70
2022/01/13 10:09:13;;;;;;;7.65;3.78;;;;;;;;;;5107571;27;20128;-69
2022/01/13 10:11:41;;;;;;;9.10;4.53;;;;;;;;;;5124651;27;20561;-70
2022/01/13 10:16:23;;;;;;;8.52;4.43;;;;;;;;;;5107026;27;20081;-70
2022/01/13 10:17:06;;;;;;;8.35;4.47;;;;;;;;;;5097444;27;20047;-70
2022/01/13 10:19:37;;;;;;;8.50;4.35;;;;;;;;;;5090233;27;20051;-65
2022/01/13 10:22:04;;;;;;;9.23;4.43;;;;;;;;;;5105002;27;20039;-65
2022/01/13 10:24:31;;;;;;;9.82;4.78;;;;;;;;;;5107385;28;20068;-65
2022/01/13 10:27:05;;;;;;;9.15;4.07;;;;;;;;;;5105485;27;20118;-65
2022/01/13 10:29:42;;;;;;;9.93;4.88;;;;;;;;;;5106556;27;20039;-65
2022/01/13 10:32:09;;;;;;;9.82;4.47;;;;;;;;;;5105845;27;20038;-65
2022/01/13 10:34:36;;;;;;;9.20;4.80;;;;;;;;;;5106906;27;20507;-65
2022/01/13 10:37:02;;;;;;;8.25;3.92;;;;;;;;;;5105780;28;20092;-65
2022/01/13 10:39:45;;;;;;;8.15;4.50;;;;;;;;;;5107048;27;20035;-65
2022/01/13 10:42:43;;;;;;;8.93;4.45;;;;;;;;;;5105357;28;20035;-65
2022/01/13 10:45:00;;;;;;;8.93;4.50;;;;;;;;;;5106860;27;20062;-65
2022/01/13 10:47:27;;;;;;;9.32;4.78;;;;;;;;;;5105597;27;20037;-65
2022/01/13 10:49:53;;;;;;;8.90;4.28;;;;;;;;;;5105500;27;20415;-65
2022/01/13 10:52:24;;;;;;;9.50;4.60;;;;;;;;;;5095147;28;20095;-65
2022/01/13 10:54:54;;;;;;;10.73;4.30;;;;;;;;;;5088138;28;20047;-65
2022/01/13 10:57:21;;;;;;;9.80;4.80;;;;;;;;;;5075593;28;20051;-65
2022/01/13 10:59:47;;;;;;;9.20;4.30;;;;;;;;;;5106235;28;20078;-65
2022/01/13 11:02:13;;;;;;;9.55;5.22;;;;;;;;;;5104889;28;20023;-65
2022/01/13 11:04:40;;;;;;;9.60;4.20;;;;;;;;;;5106694;28;20488;-65
2022/01/13 11:07:16;;;;;;;8.90;4.85;;;;;;;;;;5088327;28;20027;-65
2022/01/13 11:09:43;;;;;;;8.52;4.40;;;;;;;;;;5125174;28;20050;-65
2022/01/13 11:12:10;;;;;;;8.52;4.50;;;;;;;;;;5123195;27;20035;-65
2022/01/13 11:14:42;;;;;;;8.73;4.43;;;;;;;;;;5089271;28;20039;-65
2022/01/13 11:17:10;;;;;;;8.13;4.32;;;;;;;;;;5099706;28;20060;-65
2022/01/13 11:19:36;;;;;;;9.63;4.60;;;;;;;;;;5102508;28;20130;-65
2022/01/13 11:22:02;;;;;;;10.18;4.35;;;;;;;;;;5101638;28;20027;-65
2022/01/13 11:24:28;;;;;;;8.23;4.28;;;;;;;;;;5102995;28;20662;-64
2022/01/13 11:26:55;;;;;;;9.57;4.50;;;;;;;;;;5100641;28;20115;-65
2022/01/13 11:29:23;;;;;;;9.43;5.00;;;;;;;;;;5085743;28;20051;-65
2022/01/13 11:31:50;;;;;;;7.95;4.63;;;;;;;;;;5083189;28;20051;-65
2022/01/13 11:34:18;;;;;;;9.13;5.20;;;;;;;;;;5080811;28;20074;-65
2022/01/13 11:36:44;;;;;;;9.10;5.03;;;;;;;;;;5069835;28;20123;-65
2022/01/13 11:39:10;;;;;;;9.25;4.53;;;;;;;;;;5102910;28;20052;-65
2022/01/13 11:41:56;;;;;;;9.32;4.97;;;;;;;;;;5102494;28;20044;-65
2022/01/13 11:44:23;;;;;;;8.77;4.35;;;;;;;;;;5082416;28;20513;-66
2022/01/13 11:46:49;;;;;;;8.93;5.30;;;;;;;;;;5085185;28;20130;-65
2022/01/13 11:49:20;;;;;;;9.15;4.68;;;;;;;;;;5107266;28;20043;-65
2022/01/13 11:51:56;;;;;;;9.75;4.80;;;;;;;;;;5087020;28;20659;-65
2022/01/13 11:54:26;;;;;;;9.55;5.00;;;;;;;;;;5106562;28;20736;-65
2022/01/13 11:57:11;;;;;;;9.82;4.80;;;;;;;;;;5103690;28;20043;-65
2022/01/13 11:59:37;;;;;;;;;;;;;;;;;;5106500;28;20066;-65
2022/01/13 12:02:38;;;;;;;7.63;3.67;;;;;;;;;;5104983;28;19919;-65
2022/01/13 12:05:14;;;;;;;9.10;4.38;;;;;;;;;;5025936;28;20033;-69
2022/01/13 12:07:44;;;;;;;9.82;4.78;;;;;;;;;;5073548;28;20384;-70
2022/01/13 12:10:29;;;;;;;9.45;4.70;;;;;;;;;;5069242;28;20048;-70
2022/01/13 12:12:56;;;;;;;10.02;4.80;;;;;;;;;;5078942;28;20044;-69
2022/01/13 12:15:23;;;;;;;9.65;4.43;;;;;;;;;;5085053;28;20105;-70
2022/01/13 12:18:09;;;;;;;8.65;4.13;;;;;;;;;;5082288;28;20083;-70
2022/01/13 12:20:40;;;;;;;9.75;4.93;;;;;;;;;;5083428;28;20044;-70
2022/01/13 12:23:17;;;;;;;9.32;4.80;;;;;;;;;;5083939;28;20044;-70
2022/01/13 12:25:43;;;;;;;10.07;4.65;;;;;;;;;;5084949;28;20074;-70
2022/01/13 12:28:14;;;;;;;8.70;4.30;;;;;;;;;;5084283;28;20038;-70
2022/01/13 12:30:40;;;;;;;9.25;4.35;;;;;;;;;;5067576;28;20500;-70
2022/01/13 12:33:08;;;;;;;8.48;4.20;;;;;;;;;;5085035;28;20056;-69
2022/01/13 12:35:34;;;;;;;9.48;4.68;;;;;;;;;;5066849;28;20044;-70
2022/01/13 12:38:02;;;;;;;9.52;4.75;;;;;;;;;;5078506;28;20089;-70
2022/01/13 12:40:34;;;;;;;9.20;4.82;;;;;;;;;;5085259;28;20409;-70
2022/01/13 12:43:20;;;;;;;7.75;3.88;;;;;;;;;;5084600;28;20055;-70
2022/01/13 12:45:46;;;;;;;9.85;4.40;;;;;;;;;;5085111;28;20044;-70
2022/01/13 12:48:12;;;;;;;8.52;3.85;;;;;;;;;;5084354;28;20047;-70
2022/01/13 12:50:39;;;;;;;8.02;4.35;;;;;;;;;;5084601;28;20048;-70
2022/01/13 12:53:25;;;;;;;8.88;4.22;;;;;;;;;;5083926;28;20040;-69
2022/01/13 12:55:57;;;;;;;10.10;4.60;;;;;;;;;;5068109;28;20044;-68
2022/01/13 12:58:28;;;;;;;9.80;4.63;;;;;;;;;;5082744;28;20098;-69
2022/01/13 13:00:58;;;;;;;8.93;4.07;;;;;;;;;;5086360;28;20631;-70
2022/01/13 13:03:24;;;;;;;8.93;4.15;;;;;;;;;;5068653;28;20078;-70
2022/01/13 13:05:51;;;;;;;7.82;3.92;;;;;;;;;;5067307;28;20044;-70
2022/01/13 13:08:22;;;;;;;8.88;4.38;;;;;;;;;;5083265;28;20417;-69
2022/01/13 13:10:50;;;;;;;9.90;4.38;;;;;;;;;;5084579;28;20561;-69
2022/01/13 13:13:18;;;;;;;9.35;4.50;;;;;;;;;;5066824;28;20509;-69
2022/01/13 13:15:58;;;;;;;8.20;3.67;;;;;;;;;;5083967;28;20093;-70
2022/01/13 13:18:26;;;;;;;7.45;4.03;;;;;;;;;;5101630;28;20054;-70
2022/01/13 13:20:53;;;;;;;8.25;4.30;;;;;;;;;;5081080;28;20109;-70
2022/01/13 13:23:21;;;;;;;7.50;4.10;;;;;;;;;;5095360;28;20042;-70
2022/01/13 13:25:50;;;;;;;7.18;3.65;;;;;;;;;;5104730;28;20082;-70
2022/01/13 13:28:25;;;;;;;8.48;3.72;;;;;;;;;;5103655;28;20042;-69
2022/01/13 13:30:56;;;;;;;7.75;4.15;;;;;;;;;;5104929;28;20039;-69
2022/01/13 13:33:32;;;;;;;7.35;3.60;;;;;;;;;;5084951;28;20109;-70
2022/01/13 13:35:59;;;;;;;7.97;3.55;;;;;;;;;;5104502;28;20047;-69
2022/01/13 13:38:25;;;;;;;8.30;3.90;;;;;;;;;;5102789;28;20058;-70
2022/01/13 13:40:51;;;;;;;8.02;3.78;;;;;;;;;;5100977;28;20043;-69
2022/01/13 13:43:17;;;;;;;8.30;3.97;;;;;;;;;;5076421;28;20097;-70
2022/01/13 13:45:43;;;;;;;8.63;3.65;;;;;;;;;;5062938;28;20056;-69
2022/01/13 13:48:09;;;;;;;7.40;3.55;;;;;;;;;;5088995;28;20046;-69
2022/01/13 13:50:35;;;;;;;9.82;4.25;;;;;;;;;;5105012;28;20035;-70
2022/01/13 13:53:05;;;;;;;7.65;3.58;;;;;;;;;;5080198;28;20689;-69
2022/01/13 13:55:31;;;;;;;7.88;3.65;;;;;;;;;;5063620;28;20071;-70
2022/01/13 13:57:57;;;;;;;6.55;3.50;;;;;;;;;;5083868;28;20111;-69
2022/01/13 14:00:26;;;;;;;8.20;3.95;;;;;;;;;;5077677;28;20044;-70
2022/01/13 14:02:54;;;;;;;9.68;3.60;;;;;;;;;;5082537;28;20047;-70
2022/01/13 14:05:24;;;;;;;14.45;4.22;;;;;;;;;;5042226;28;20036;-70
2022/01/13 14:07:50;;;;;;;16.08;4.43;;;;;;;;;;5058014;28;20040;-70
2022/01/13 14:10:17;;;;;;;16.63;4.20;;;;;;;;;;5082243;28;20138;-70
2022/01/13 14:12:49;;;;;;;14.95;4.45;;;;;;;;;;5090425;28;20050;-70
2022/01/13 14:15:17;;;;;;;24.55;5.07;;;;;;;;;;5103236;28;20492;-70
2022/01/13 14:17:44;;;;;;;21.52;4.95;;;;;;;;;;5102341;28;20085;-69
2022/01/13 14:20:14;;;;;;;13.32;4.57;;;;;;;;;;5103803;28;20051;-69
2022/01/13 14:22:41;;;;;;;25.77;4.72;;;;;;;;;;5105280;28;20050;-69
2022/01/13 14:25:11;;;;;;;27.00;4.85;;;;;;;;;;5107452;28;20126;-70
2022/01/13 14:27:49;;;;;;;22.10;5.30;;;;;;;;;;5105293;28;20027;-70
2022/01/13 14:30:24;;;;;;;19.65;4.80;;;;;;;;;;5107418;28;20047;-70
2022/01/13 14:32:50;;;;;;;20.73;4.80;;;;;;;;;;5102877;28;20546;-70
2022/01/13 14:35:27;;;;;;;32.17;5.03;;;;;;;;;;5102916;28;20043;-70
2022/01/13 14:37:54;;;;;;;17.60;4.53;;;;;;;;;;5086648;28;20048;-70
2022/01/13 14:40:21;;;;;;;20.52;4.57;;;;;;;;;;5069924;28;20119;-69
2022/01/13 14:42:48;;;;;;;12.60;4.40;;;;;;;;;;5070461;28;20097;-69
2022/01/13 14:45:27;;;;;;;20.55;5.32;;;;;;;;;;5073408;28;20086;-70
2022/01/13 14:47:53;;;;;;;15.27;4.10;;;;;;;;;;5091386;28;20043;-69
2022/01/13 14:50:20;;;;;;;19.13;4.78;;;;;;;;;;5103250;28;20039;-70
2022/01/13 14:52:47;;;;;;;19.30;4.38;;;;;;;;;;5101272;28;20039;-70
2022/01/13 14:55:13;;;;;;;18.27;4.15;;;;;;;;;;5103153;28;20127;-70
2022/01/13 14:57:39;;;;;;;15.10;4.35;;;;;;;;;;5100572;28;20044;-71
2022/01/13 15:00:06;;;;;;;15.40;4.05;;;;;;;;;;5102953;28;20100;-70
2022/01/13 15:02:32;;;;;;;13.75;4.35;;;;;;;;;;5102335;28;20031;-70
2022/01/13 15:04:58;;;;;;;14.88;4.07;;;;;;;;;;5104035;28;20046;-64
2022/01/13 15:07:24;;;;;;;15.30;4.38;;;;;;;;;;5083997;28;20035;-64
2022/01/13 15:09:50;;;;;;;17.60;4.63;;;;;;;;;;5099776;28;20048;-64
2022/01/13 15:12:17;;;;;;;15.93;4.10;;;;;;;;;;5081403;28;20035;-65